createdAt,value
2019-05-18T00:01:45.534Z,16.31
2019-05-18T00:04:15.561Z,16.40
2019-05-18T00:06:45.619Z,16.52
2019-05-18T00:09:15.649Z,16.63
2019-05-18T00:11:45.693Z,16.69
2019-05-18T00:14:15.712Z,16.76
2019-05-18T00:16:45.760Z,16.78
2019-05-18T00:19:15.786Z,16.81
2019-05-18T00:21:47.553Z,16.84
2019-05-18T00:24:18.536Z,16.87
2019-05-18T00:26:48.578Z,16.95
2019-05-18T00:29:18.608Z,17.01
2019-05-18T00:31:48.667Z,17.08
2019-05-18T00:34:18.765Z,17.11
2019-05-18T01:12:51.400Z,17.05
2019-05-18T01:15:21.431Z,17.00
2019-05-18T01:17:57.437Z,16.99
2019-05-18T01:20:23.285Z,17.00
2019-05-18T01:22:53.286Z,17.00
2019-05-18T01:25:23.433Z,16.98
2019-05-18T01:27:53.513Z,16.99
2019-05-18T01:30:23.531Z,16.99
2019-05-18T01:32:53.618Z,16.89
2019-05-18T01:35:23.700Z,16.78
2019-05-18T01:37:56.897Z,16.81
2019-05-18T01:40:26.950Z,16.85
2019-05-18T01:42:56.980Z,16.87
2019-05-18T01:45:27.049Z,16.89
2019-05-18T01:48:11.126Z,16.87
2019-05-18T01:50:28.835Z,16.77
2019-05-18T01:52:58.889Z,16.69
2019-05-18T01:55:28.945Z,16.67
2019-05-18T01:57:58.977Z,16.72
2019-05-18T02:00:29.041Z,16.65
2019-05-18T02:02:59.075Z,16.65
2019-05-18T02:05:29.210Z,16.67
2019-05-18T02:07:59.237Z,16.70
2019-05-18T02:10:29.295Z,16.76
2019-05-18T02:12:59.512Z,16.81
2019-05-18T02:15:29.558Z,16.67
2019-05-18T02:17:59.619Z,16.67
2019-05-18T02:20:29.991Z,16.65
2019-05-18T02:23:00.030Z,16.71
2019-05-18T02:25:30.073Z,16.76
2019-05-18T02:28:00.131Z,16.77
2019-05-18T02:30:30.171Z,16.80
2019-05-18T02:33:00.210Z,16.82
2019-05-18T02:35:30.236Z,16.82
2019-05-18T02:38:15.265Z,16.83
2019-05-18T02:40:45.719Z,16.84
2019-05-18T02:43:15.870Z,16.84
2019-05-18T02:45:45.919Z,16.87
2019-05-18T02:48:15.984Z,16.89
2019-05-18T02:50:46.017Z,16.92
2019-05-18T02:53:16.066Z,16.93
2019-05-18T02:55:46.121Z,16.91
2019-05-18T02:58:16.209Z,16.87
2019-05-18T03:00:46.273Z,16.88
2019-05-18T03:03:16.314Z,16.89
2019-05-18T03:05:47.354Z,16.92
2019-05-18T03:08:17.388Z,16.93
2019-05-18T03:10:47.448Z,16.90
2019-05-18T03:13:17.516Z,16.88
2019-05-18T03:15:47.550Z,16.84
2019-05-18T03:18:17.598Z,16.85
2019-05-18T03:20:47.628Z,16.88
2019-05-18T03:23:17.711Z,16.91
2019-05-18T03:25:47.751Z,16.90
2019-05-18T03:28:17.818Z,16.90
2019-05-18T03:30:47.871Z,16.92
2019-05-18T03:33:17.915Z,16.95
2019-05-18T03:35:47.966Z,16.94
2019-05-18T03:38:18.052Z,16.94
2019-05-18T03:40:48.074Z,16.96
2019-05-18T03:43:18.121Z,16.98
2019-05-18T03:45:48.182Z,16.99
2019-05-18T03:48:18.279Z,16.98
2019-05-18T03:50:48.285Z,16.98
2019-05-18T03:53:18.616Z,16.95
2019-05-18T03:55:48.630Z,16.92
2019-05-18T03:58:18.703Z,16.91
2019-05-18T04:00:48.755Z,16.88
2019-05-18T04:03:18.819Z,16.78
2019-05-18T04:05:48.881Z,16.73
2019-05-18T04:08:19.027Z,16.70
2019-05-18T04:10:49.067Z,16.61
2019-05-18T04:13:19.105Z,16.48
2019-05-18T04:15:49.158Z,16.40
2019-05-18T04:18:19.208Z,16.32
2019-05-18T04:20:49.255Z,16.27
2019-05-18T04:23:19.328Z,16.14
2019-05-18T04:25:49.389Z,15.99
2019-05-18T04:28:19.445Z,15.86
2019-05-18T04:30:49.514Z,15.74
2019-05-18T04:33:19.571Z,15.74
2019-05-18T04:35:49.616Z,15.64
2019-05-18T04:38:19.692Z,15.50
2019-05-18T04:40:49.752Z,15.41
2019-05-18T04:43:19.796Z,15.33
2019-05-18T04:45:49.881Z,15.33
2019-05-18T04:48:19.918Z,15.30
2019-05-18T04:50:51.610Z,15.29
2019-05-18T04:53:21.657Z,15.19
2019-05-18T04:55:51.738Z,15.11
2019-05-18T04:58:21.777Z,15.12
2019-05-18T05:00:52.811Z,15.18
2019-05-18T05:03:22.858Z,15.24
2019-05-18T05:05:52.943Z,15.32
2019-05-18T05:08:22.986Z,15.39
2019-05-18T05:10:53.057Z,15.35
2019-05-18T05:13:23.102Z,15.22
2019-05-18T05:15:54.260Z,15.07
2019-05-18T05:18:27.333Z,14.99
2019-05-18T05:20:57.397Z,15.01
2019-05-18T05:23:27.517Z,15.06
2019-05-18T05:25:57.589Z,15.13
2019-05-18T05:28:27.669Z,15.12
2019-05-18T05:30:57.752Z,15.10
2019-05-18T05:33:27.796Z,15.07
2019-05-18T05:35:57.867Z,15.07
2019-05-18T05:38:27.937Z,15.13
2019-05-18T05:40:57.999Z,15.20
2019-05-18T05:43:31.152Z,15.16
2019-05-18T05:46:01.196Z,15.16
2019-05-18T05:48:31.276Z,15.22
2019-05-18T05:51:01.333Z,15.30
2019-05-18T05:53:31.439Z,15.39
2019-05-18T05:56:01.442Z,15.57
2019-05-18T05:58:31.487Z,15.55
2019-05-18T06:01:01.549Z,15.55
2019-05-18T06:03:31.594Z,15.59
2019-05-18T06:06:01.708Z,15.59
2019-05-18T06:08:31.765Z,15.55
2019-05-18T06:11:01.842Z,15.63
2019-05-18T06:13:31.889Z,15.68
2019-05-18T06:16:02.918Z,15.68
2019-05-18T06:18:33.019Z,15.71
2019-05-18T06:21:03.089Z,15.81
2019-05-18T06:23:33.211Z,15.92
2019-05-18T06:26:03.250Z,16.03
2019-05-18T06:28:33.323Z,16.11
2019-05-18T06:31:03.450Z,16.17
2019-05-18T06:33:33.514Z,16.21
2019-05-18T06:36:03.588Z,16.24
2019-05-18T06:38:33.698Z,16.20
2019-05-18T06:41:03.725Z,16.23
2019-05-18T06:43:33.777Z,16.29
2019-05-18T06:46:03.846Z,16.37
2019-05-18T06:48:33.902Z,16.45
2019-05-18T06:51:07.149Z,16.50
2019-05-18T06:53:35.865Z,16.53
2019-05-18T06:56:05.945Z,16.58
2019-05-18T06:58:36.092Z,16.65
2019-05-18T07:01:06.173Z,16.71
2019-05-18T07:03:36.215Z,16.75
2019-05-18T07:06:06.318Z,16.82
2019-05-18T07:08:37.349Z,16.88
2019-05-18T07:11:07.386Z,16.91
2019-05-18T07:13:37.448Z,16.96
2019-05-18T07:16:07.511Z,17.02
2019-05-18T07:18:37.581Z,17.06
2019-05-18T07:21:21.116Z,17.11
2019-05-18T07:23:39.422Z,17.16
2019-05-18T07:26:09.452Z,17.18
2019-05-18T07:28:39.496Z,17.20
2019-05-18T07:31:09.658Z,17.22
2019-05-18T07:33:39.706Z,17.24
2019-05-18T07:36:09.776Z,17.29
2019-05-18T07:38:39.921Z,17.27
2019-05-18T07:41:10.054Z,17.28
2019-05-18T07:43:40.107Z,17.26
2019-05-18T07:46:10.156Z,17.30
2019-05-18T07:48:40.221Z,17.40
2019-05-18T07:51:10.510Z,17.51
2019-05-18T07:53:40.610Z,17.61
2019-05-18T07:56:10.642Z,17.65
2019-05-18T07:58:40.695Z,17.69
2019-05-18T08:01:10.712Z,17.74
2019-05-18T08:03:40.753Z,17.77
2019-05-18T08:06:10.859Z,17.87
2019-05-18T08:08:40.902Z,17.93
2019-05-18T08:11:11.939Z,17.98
2019-05-18T08:13:41.976Z,17.99
2019-05-18T08:16:12.153Z,17.98
2019-05-18T08:18:42.208Z,17.99
2019-05-18T08:21:12.265Z,18.03
2019-05-18T08:23:42.356Z,18.05
2019-05-18T08:26:12.408Z,18.09
2019-05-18T08:28:42.450Z,18.13
2019-05-18T08:31:12.500Z,18.18
2019-05-18T08:33:42.543Z,18.23
2019-05-18T08:36:12.601Z,18.28
2019-05-18T08:38:42.663Z,18.27
2019-05-18T08:41:12.701Z,18.31
2019-05-18T08:43:43.734Z,18.34
2019-05-18T08:46:13.785Z,18.36
2019-05-18T08:48:43.841Z,18.36
2019-05-18T08:51:13.892Z,18.33
2019-05-18T08:53:43.944Z,18.32
2019-05-18T08:56:13.993Z,18.31
2019-05-18T08:58:44.073Z,18.29
2019-05-18T09:01:14.110Z,18.30
2019-05-18T09:03:44.185Z,18.32
2019-05-18T09:06:14.365Z,18.33
2019-05-18T09:08:44.425Z,18.37
2019-05-18T09:11:14.535Z,18.44
2019-05-18T09:13:44.593Z,18.48
2019-05-18T09:16:14.669Z,18.55
2019-05-18T09:18:44.712Z,18.65
2019-05-18T09:21:14.773Z,18.70
2019-05-18T09:23:44.796Z,18.73
2019-05-18T09:26:14.984Z,18.78
2019-05-18T09:28:45.041Z,18.86
2019-05-18T09:31:17.798Z,18.93
2019-05-18T09:33:47.835Z,19.00
2019-05-18T09:36:17.908Z,19.05
2019-05-18T09:38:48.004Z,19.07
2019-05-18T09:41:18.070Z,19.10
2019-05-18T09:43:48.128Z,19.13
2019-05-18T09:46:18.170Z,19.19
2019-05-18T09:48:48.322Z,19.23
2019-05-18T09:51:18.358Z,19.28
2019-05-18T09:53:51.732Z,19.32
2019-05-18T09:56:20.152Z,19.37
2019-05-18T09:58:50.238Z,19.40
2019-05-18T10:01:20.275Z,19.45
2019-05-18T10:03:50.342Z,19.52
2019-05-18T10:06:20.415Z,19.59
2019-05-18T10:08:50.483Z,19.64
2019-05-18T10:11:20.517Z,19.67
2019-05-18T10:13:50.693Z,19.72
2019-05-18T10:16:20.742Z,19.83
2019-05-18T10:18:50.796Z,19.97
2019-05-18T10:21:20.838Z,20.03
2019-05-18T10:23:50.859Z,20.14
2019-05-18T10:26:20.919Z,20.16
2019-05-18T10:28:50.955Z,20.19
2019-05-18T10:31:21.000Z,20.26
2019-05-18T10:33:51.070Z,20.36
2019-05-18T10:36:21.107Z,20.46
2019-05-18T10:38:51.164Z,20.55
2019-05-18T10:41:21.233Z,20.65
2019-05-18T10:43:51.269Z,20.76
2019-05-18T10:46:21.337Z,20.89
2019-05-18T10:48:51.386Z,20.98
2019-05-18T10:51:21.456Z,21.12
2019-05-18T10:53:51.587Z,21.35
2019-05-18T10:56:21.639Z,21.61
2019-05-18T10:58:52.657Z,21.84
2019-05-18T11:01:22.725Z,22.01
2019-05-18T11:03:52.769Z,22.18
2019-05-18T11:06:22.860Z,22.39
2019-05-18T11:08:52.917Z,22.43
2019-05-18T11:11:22.979Z,22.44
2019-05-18T11:13:53.016Z,22.43
2019-05-18T11:16:23.157Z,22.39
2019-05-18T11:18:53.203Z,22.34
2019-05-18T11:21:23.261Z,22.31
2019-05-18T11:23:53.331Z,22.25
2019-05-18T11:26:23.408Z,22.16
2019-05-18T11:28:53.454Z,22.08
2019-05-18T11:31:23.534Z,21.99
2019-05-18T11:33:53.572Z,21.96
2019-05-18T11:36:23.647Z,21.93
2019-05-18T11:38:53.685Z,21.90
2019-05-18T11:41:23.943Z,21.89
2019-05-18T11:43:53.980Z,21.87
2019-05-18T11:46:24.053Z,21.86
2019-05-18T11:48:54.101Z,21.83
2019-05-18T11:51:24.179Z,21.80
2019-05-18T11:53:58.173Z,21.75
2019-05-18T11:56:25.967Z,21.77
2019-05-18T11:58:56.025Z,21.75
2019-05-18T12:01:26.079Z,21.77
2019-05-18T12:03:56.118Z,21.87
2019-05-18T12:06:26.286Z,22.02
2019-05-18T12:08:58.578Z,22.06
2019-05-18T12:11:28.099Z,21.89
2019-05-18T12:13:58.204Z,21.80
2019-05-18T12:16:28.238Z,21.69
2019-05-18T12:18:58.298Z,21.72
2019-05-18T12:21:28.366Z,21.73
2019-05-18T12:24:13.765Z,21.73
2019-05-18T12:26:30.265Z,21.74
2019-05-18T12:29:00.327Z,21.78
2019-05-18T12:31:30.489Z,21.72
2019-05-18T12:34:00.520Z,21.64
2019-05-18T12:36:30.575Z,21.75
2019-05-18T12:39:00.627Z,21.87
2019-05-18T12:41:30.860Z,21.87
2019-05-18T12:44:00.939Z,21.74
2019-05-18T12:46:30.988Z,21.73
2019-05-18T12:49:01.217Z,21.87
2019-05-18T12:51:31.368Z,21.77
2019-05-18T12:54:01.414Z,21.69
2019-05-18T12:56:31.495Z,21.70
2019-05-18T12:59:01.572Z,21.67
2019-05-18T13:01:31.654Z,21.72
2019-05-18T13:04:01.708Z,21.77
2019-05-18T13:06:31.877Z,21.87
2019-05-18T13:09:01.930Z,22.02
2019-05-18T13:11:33.372Z,22.17
2019-05-18T13:14:03.449Z,22.24
2019-05-18T13:16:33.498Z,22.41
2019-05-18T13:19:03.564Z,22.46
2019-05-18T13:21:33.758Z,22.50
2019-05-18T13:24:03.836Z,22.50
2019-05-18T13:26:33.865Z,22.50
2019-05-18T13:29:03.935Z,22.41
2019-05-18T13:31:33.971Z,22.41
2019-05-18T13:34:04.041Z,22.44
2019-05-18T13:36:34.138Z,22.51
2019-05-18T13:39:04.858Z,22.57
2019-05-18T13:41:34.943Z,22.64
2019-05-18T13:44:04.988Z,22.74
2019-05-18T13:46:35.049Z,22.84
2019-05-18T13:49:05.090Z,22.86
2019-05-18T13:51:35.170Z,22.85
2019-05-18T13:54:05.212Z,22.81
2019-05-18T13:56:35.290Z,22.87
2019-05-18T13:59:05.325Z,22.87
2019-05-18T14:01:35.405Z,22.86
2019-05-18T14:04:05.436Z,22.81
2019-05-18T14:06:35.633Z,22.82
2019-05-18T14:09:06.497Z,22.70
2019-05-18T14:11:36.586Z,22.66
2019-05-18T14:14:06.618Z,22.62
2019-05-18T14:16:36.669Z,22.62
2019-05-18T14:19:06.917Z,22.62
2019-05-18T14:21:36.947Z,22.57
2019-05-18T14:24:07.016Z,22.60
2019-05-18T14:26:37.070Z,22.59
2019-05-18T14:29:07.108Z,22.54
2019-05-18T14:31:37.165Z,22.56
2019-05-18T14:34:07.198Z,22.54
2019-05-18T14:36:37.275Z,22.51
2019-05-18T14:39:07.372Z,22.49
2019-05-18T14:41:37.428Z,22.39
2019-05-18T14:44:07.464Z,22.03
2019-05-18T14:46:37.494Z,21.74
2019-05-18T14:49:07.588Z,21.58
2019-05-18T14:51:37.620Z,21.55
2019-05-18T14:54:07.851Z,21.61
2019-05-18T14:56:37.895Z,21.80
2019-05-18T14:59:08.031Z,21.92
2019-05-18T15:01:38.061Z,22.05
2019-05-18T15:04:08.130Z,22.18
2019-05-18T15:06:38.303Z,22.27
2019-05-18T15:09:08.373Z,22.17
2019-05-18T15:11:38.418Z,22.10
2019-05-18T15:14:08.493Z,22.14
2019-05-18T15:16:38.547Z,22.17
2019-05-18T15:19:08.670Z,22.23
2019-05-18T15:21:38.771Z,22.29
2019-05-18T15:24:08.974Z,22.40
2019-05-18T15:26:39.064Z,22.40
2019-05-18T15:29:09.100Z,22.41
2019-05-18T15:31:39.165Z,22.38
2019-05-18T15:34:09.245Z,22.47
2019-05-18T15:36:39.274Z,22.48
2019-05-18T15:39:09.328Z,22.53
2019-05-18T15:41:41.167Z,22.52
2019-05-18T15:44:11.221Z,22.55
2019-05-18T15:46:41.279Z,22.53
2019-05-18T15:49:11.362Z,22.37
2019-05-18T15:51:41.404Z,22.26
2019-05-18T15:54:11.446Z,22.18
2019-05-18T15:56:44.204Z,21.98
2019-05-18T15:59:13.345Z,21.90
2019-05-18T16:01:43.467Z,21.70
2019-05-18T16:04:13.486Z,21.52
2019-05-18T16:06:43.595Z,21.44
2019-05-18T16:09:13.635Z,21.27
2019-05-18T16:11:43.693Z,21.02
2019-05-18T16:14:13.802Z,20.90
2019-05-18T16:16:43.879Z,20.91
2019-05-18T16:19:13.909Z,20.92
2019-05-18T16:21:44.084Z,20.87
2019-05-18T16:24:14.128Z,20.82
2019-05-18T16:26:44.180Z,20.78
2019-05-18T16:29:14.240Z,20.60
2019-05-18T16:31:44.302Z,20.57
2019-05-18T16:34:14.362Z,20.52
2019-05-18T16:36:44.406Z,20.54
2019-05-18T16:39:14.624Z,20.62
2019-05-18T16:41:44.697Z,20.70
2019-05-18T16:44:14.836Z,20.75
2019-05-18T16:46:44.877Z,20.71
2019-05-18T16:49:14.925Z,20.70
2019-05-18T16:51:45.959Z,20.62
2019-05-18T16:54:15.998Z,20.51
2019-05-18T16:56:46.108Z,20.45
2019-05-18T16:59:16.196Z,20.29
2019-05-18T17:01:46.231Z,20.23
2019-05-18T17:04:16.299Z,20.11
2019-05-18T17:06:48.625Z,20.04
2019-05-18T17:09:18.677Z,20.07
2019-05-18T17:11:48.802Z,20.07
2019-05-18T17:14:18.859Z,20.09
2019-05-18T17:16:48.911Z,20.10
2019-05-18T17:19:19.061Z,20.14
2019-05-18T17:21:49.142Z,20.17
2019-05-18T17:24:19.241Z,20.22
2019-05-18T17:26:52.837Z,20.30
2019-05-18T17:29:21.046Z,20.31
2019-05-18T17:31:51.076Z,20.26
2019-05-18T17:34:21.134Z,20.21
2019-05-18T17:36:52.634Z,20.12
2019-05-18T17:39:22.939Z,20.11
2019-05-18T17:41:53.072Z,20.08
2019-05-18T17:44:23.951Z,20.02
2019-05-18T17:46:54.073Z,20.05
2019-05-18T17:49:26.740Z,20.08
2019-05-18T17:51:55.964Z,19.97
2019-05-18T17:54:26.005Z,19.89
2019-05-18T17:57:08.031Z,19.77
2019-05-18T17:59:27.884Z,19.74
2019-05-18T18:01:57.921Z,19.70
2019-05-18T18:04:28.031Z,19.65
2019-05-18T18:06:58.113Z,19.65
2019-05-18T18:09:28.139Z,19.59
2019-05-18T18:11:58.401Z,19.56
2019-05-18T18:14:28.438Z,19.55
2019-05-18T18:16:58.645Z,19.58
2019-05-18T18:19:29.480Z,19.61
2019-05-18T18:21:59.545Z,19.61
2019-05-18T18:24:29.577Z,19.63
2019-05-18T18:26:59.658Z,19.64
2019-05-18T18:29:29.725Z,19.57
2019-05-18T18:31:59.832Z,19.52
2019-05-18T18:34:29.889Z,19.44
2019-05-18T18:36:59.930Z,19.49
2019-05-18T18:39:30.000Z,19.60
2019-05-18T18:42:00.105Z,19.70
2019-05-18T18:44:30.199Z,19.81
2019-05-18T18:47:00.267Z,19.91
2019-05-18T18:49:30.272Z,19.91
2019-05-18T18:52:00.327Z,19.95
2019-05-18T18:54:30.420Z,19.95
2019-05-18T18:57:00.511Z,19.91
2019-05-18T18:59:30.567Z,19.91
2019-05-18T19:02:00.670Z,19.84
2019-05-18T19:04:30.694Z,19.72
2019-05-18T19:07:00.739Z,19.68
2019-05-18T19:09:30.953Z,19.63
2019-05-18T19:12:01.006Z,19.70
2019-05-18T19:14:31.080Z,19.72
2019-05-18T19:17:01.111Z,19.70
2019-05-18T19:19:32.047Z,19.75
2019-05-18T19:22:02.080Z,19.79
2019-05-18T19:24:32.180Z,19.74
2019-05-18T19:27:03.994Z,19.65
2019-05-18T19:29:34.183Z,19.57
2019-05-18T19:32:05.288Z,19.56
2019-05-18T19:34:35.362Z,19.58
2019-05-18T19:37:05.417Z,19.62
2019-05-18T19:39:35.492Z,19.64
2019-05-18T19:42:05.533Z,19.65
2019-05-18T19:44:35.604Z,19.67
2019-05-18T19:47:05.638Z,19.69
2019-05-18T19:49:35.738Z,19.74
2019-05-18T19:52:05.777Z,19.70
2019-05-18T19:54:35.916Z,19.67
2019-05-18T19:57:05.984Z,19.55
2019-05-18T19:59:36.028Z,19.54
2019-05-18T20:02:06.086Z,19.57
2019-05-18T20:04:36.131Z,19.56
2019-05-18T20:07:06.285Z,19.57
2019-05-18T20:09:36.333Z,19.50
2019-05-18T20:12:06.376Z,19.48
2019-05-18T20:14:36.425Z,19.47
2019-05-18T20:17:06.526Z,19.46
2019-05-18T20:19:39.696Z,19.41
2019-05-18T20:22:08.347Z,19.41
2019-05-18T20:24:38.453Z,19.32
2019-05-18T20:27:08.515Z,19.30
2019-05-18T20:29:38.549Z,19.25
2019-05-18T20:32:08.678Z,19.16
2019-05-18T20:34:38.760Z,19.07
2019-05-18T20:37:08.817Z,19.04
2019-05-18T20:39:38.962Z,18.99
2019-05-18T20:42:08.999Z,18.96
2019-05-18T20:44:39.052Z,18.85
2019-05-18T20:47:09.188Z,18.82
2019-05-18T20:49:39.229Z,18.81
2019-05-18T20:52:09.271Z,18.75
2019-05-18T20:54:39.324Z,18.68
2019-05-18T20:57:09.365Z,18.59
2019-05-18T20:59:39.439Z,18.42
2019-05-18T21:02:09.503Z,18.27
2019-05-18T21:04:39.550Z,18.11
2019-05-18T21:07:09.628Z,17.96
2019-05-18T21:09:39.710Z,17.82
2019-05-18T21:12:09.760Z,17.78
2019-05-18T21:14:39.805Z,17.76
2019-05-18T21:17:09.866Z,17.76
2019-05-18T21:19:39.940Z,17.76
2019-05-18T21:22:10.032Z,17.74
2019-05-18T21:24:40.098Z,17.74
2019-05-18T21:27:10.141Z,17.76
2019-05-18T21:29:40.195Z,17.79
2019-05-18T21:32:10.273Z,17.79
2019-05-18T21:34:40.317Z,17.87
2019-05-18T21:37:10.377Z,17.97
2019-05-18T21:39:40.428Z,17.96
2019-05-18T21:42:10.476Z,17.93
2019-05-18T21:44:40.590Z,17.85
2019-05-18T21:47:10.651Z,17.84
2019-05-18T21:49:40.980Z,17.85
2019-05-18T21:52:11.071Z,17.83
2019-05-18T21:54:41.118Z,17.74
2019-05-18T21:57:11.273Z,17.70
2019-05-18T21:59:41.308Z,17.70
2019-05-18T22:02:11.436Z,17.72
2019-05-18T22:04:41.477Z,17.75
2019-05-18T22:07:11.563Z,17.80
2019-05-18T22:09:41.610Z,17.86
2019-05-18T22:12:11.662Z,17.90
2019-05-18T22:14:41.698Z,17.94
2019-05-18T22:17:11.746Z,17.98
2019-05-18T22:19:41.817Z,17.99
2019-05-18T22:22:11.845Z,17.99
2019-05-18T22:24:41.952Z,18.01
2019-05-18T22:27:12.051Z,18.02
2019-05-18T22:29:42.077Z,18.01
2019-05-18T22:32:12.309Z,17.99
2019-05-18T22:34:42.369Z,17.94
2019-05-18T22:37:12.412Z,17.89
2019-05-18T22:39:42.492Z,17.84
2019-05-18T22:42:12.532Z,17.82
2019-05-18T22:44:42.568Z,17.84
2019-05-18T22:47:12.637Z,17.89
2019-05-18T22:49:42.677Z,17.89
2019-05-18T22:52:12.738Z,17.86
2019-05-18T22:54:42.776Z,17.81
2019-05-18T22:57:12.856Z,17.68
2019-05-18T22:59:42.902Z,17.53
2019-05-18T23:02:12.955Z,17.41
2019-05-18T23:04:43.029Z,17.28
2019-05-18T23:07:13.044Z,17.15
2019-05-18T23:09:43.105Z,17.03
2019-05-18T23:12:13.137Z,16.97
2019-05-18T23:14:43.189Z,16.98
2019-05-18T23:17:13.246Z,16.91
2019-05-18T23:19:43.280Z,16.84
2019-05-18T23:22:13.357Z,16.83
2019-05-18T23:24:44.961Z,16.76
2019-05-18T23:27:15.030Z,16.75
2019-05-18T23:29:45.066Z,16.75
2019-05-18T23:32:15.126Z,16.72
2019-05-18T23:34:45.168Z,16.70
2019-05-18T23:37:15.215Z,16.66
2019-05-18T23:39:45.268Z,16.56
2019-05-18T23:42:15.293Z,16.50
2019-05-18T23:44:45.353Z,16.47
2019-05-18T23:47:15.387Z,16.40
2019-05-18T23:49:45.431Z,16.30
2019-05-18T23:52:15.491Z,16.21
2019-05-18T23:54:46.613Z,16.13
2019-05-18T23:57:16.703Z,16.04
2019-05-18T23:59:46.744Z,16.01
